sensor_id;sensor_type;location;lat;lon;timestamp;P1;durP1;ratioP1;P2;durP2;ratioP2
27746;SDS011;15138;51.012;4.692;2023-07-31T00:01:15;15.63;;;5.22;;
27746;SDS011;15138;51.012;4.692;2023-07-31T00:03:43;12.30;;;4.38;;
27746;SDS011;15138;51.012;4.692;2023-07-31T00:06:12;16.27;;;4.80;;
27746;SDS011;15138;51.012;4.692;2023-07-31T00:08:40;14.63;;;4.20;;
27746;SDS011;15138;51.012;4.692;2023-07-31T00:11:09;15.60;;;5.00;;
27746;SDS011;15138;51.012;4.692;2023-07-31T00:13:39;18.73;;;5.50;;
27746;SDS011;15138;51.012;4.692;2023-07-31T00:16:07;13.00;;;4.80;;
27746;SDS011;15138;51.012;4.692;2023-07-31T00:18:36;16.45;;;5.70;;
27746;SDS011;15138;51.012;4.692;2023-07-31T00:21:04;15.88;;;4.95;;
27746;SDS011;15138;51.012;4.692;2023-07-31T00:23:32;22.55;;;5.72;;
27746;SDS011;15138;51.012;4.692;2023-07-31T00:26:01;14.13;;;4.55;;
27746;SDS011;15138;51.012;4.692;2023-07-31T00:28:29;17.52;;;5.75;;
27746;SDS011;15138;51.012;4.692;2023-07-31T00:30:59;17.77;;;4.78;;
27746;SDS011;15138;51.012;4.692;2023-07-31T00:33:28;13.35;;;4.63;;
27746;SDS011;15138;51.012;4.692;2023-07-31T00:35:56;13.35;;;5.32;;
27746;SDS011;15138;51.012;4.692;2023-07-31T00:38:25;16.80;;;4.95;;
27746;SDS011;15138;51.012;4.692;2023-07-31T00:40:53;16.95;;;5.43;;
27746;SDS011;15138;51.012;4.692;2023-07-31T00:43:22;12.85;;;4.90;;
27746;SDS011;15138;51.012;4.692;2023-07-31T00:45:50;14.48;;;4.75;;
27746;SDS011;15138;51.012;4.692;2023-07-31T00:48:20;16.52;;;5.43;;
27746;SDS011;15138;51.012;4.692;2023-07-31T00:50:49;13.30;;;4.45;;
27746;SDS011;15138;51.012;4.692;2023-07-31T00:53:18;18.50;;;4.72;;
27746;SDS011;15138;51.012;4.692;2023-07-31T00:55:46;12.73;;;4.90;;
27746;SDS011;15138;51.012;4.692;2023-07-31T00:58:15;20.90;;;5.60;;
27746;SDS011;15138;51.012;4.692;2023-07-31T01:00:43;14.75;;;5.28;;
27746;SDS011;15138;51.012;4.692;2023-07-31T01:03:12;16.42;;;4.85;;
27746;SDS011;15138;51.012;4.692;2023-07-31T01:05:45;16.80;;;4.90;;
27746;SDS011;15138;51.012;4.692;2023-07-31T01:08:18;14.38;;;4.32;;
27746;SDS011;15138;51.012;4.692;2023-07-31T01:10:50;19.65;;;5.43;;
27746;SDS011;15138;51.012;4.692;2023-07-31T01:13:19;11.98;;;4.22;;
27746;SDS011;15138;51.012;4.692;2023-07-31T01:15:48;19.98;;;5.28;;
27746;SDS011;15138;51.012;4.692;2023-07-31T01:18:16;16.58;;;5.45;;
27746;SDS011;15138;51.012;4.692;2023-07-31T01:20:47;21.27;;;5.38;;
27746;SDS011;15138;51.012;4.692;2023-07-31T01:26:11;14.13;;;4.75;;
27746;SDS011;15138;51.012;4.692;2023-07-31T01:28:47;20.20;;;5.75;;
27746;SDS011;15138;51.012;4.692;2023-07-31T01:31:18;14.63;;;5.03;;
27746;SDS011;15138;51.012;4.692;2023-07-31T01:33:48;19.58;;;5.28;;
27746;SDS011;15138;51.012;4.692;2023-07-31T01:36:17;15.85;;;5.10;;
27746;SDS011;15138;51.012;4.692;2023-07-31T01:38:45;16.38;;;4.28;;
27746;SDS011;15138;51.012;4.692;2023-07-31T01:41:17;12.95;;;4.78;;
27746;SDS011;15138;51.012;4.692;2023-07-31T01:43:46;17.45;;;4.82;;
27746;SDS011;15138;51.012;4.692;2023-07-31T01:46:14;17.90;;;5.38;;
27746;SDS011;15138;51.012;4.692;2023-07-31T01:48:43;13.48;;;4.47;;
27746;SDS011;15138;51.012;4.692;2023-07-31T01:51:11;13.18;;;4.85;;
27746;SDS011;15138;51.012;4.692;2023-07-31T01:53:40;15.40;;;4.95;;
27746;SDS011;15138;51.012;4.692;2023-07-31T01:56:08;14.40;;;4.88;;
27746;SDS011;15138;51.012;4.692;2023-07-31T01:58:38;14.30;;;5.10;;
27746;SDS011;15138;51.012;4.692;2023-07-31T02:01:06;17.63;;;4.97;;
27746;SDS011;15138;51.012;4.692;2023-07-31T02:03:35;15.77;;;4.10;;
27746;SDS011;15138;51.012;4.692;2023-07-31T02:06:03;16.02;;;5.03;;
27746;SDS011;15138;51.012;4.692;2023-07-31T02:08:32;11.98;;;4.63;;
27746;SDS011;15138;51.012;4.692;2023-07-31T02:11:00;13.00;;;4.30;;
27746;SDS011;15138;51.012;4.692;2023-07-31T02:13:29;18.00;;;5.10;;
27746;SDS011;15138;51.012;4.692;2023-07-31T02:15:59;20.10;;;5.20;;
27746;SDS011;15138;51.012;4.692;2023-07-31T02:18:27;20.10;;;5.25;;
27746;SDS011;15138;51.012;4.692;2023-07-31T02:20:56;14.55;;;4.43;;
27746;SDS011;15138;51.012;4.692;2023-07-31T02:23:24;17.73;;;5.10;;
27746;SDS011;15138;51.012;4.692;2023-07-31T02:25:53;15.23;;;5.05;;
27746;SDS011;15138;51.012;4.692;2023-07-31T02:28:21;12.23;;;4.35;;
27746;SDS011;15138;51.012;4.692;2023-07-31T02:30:50;18.35;;;4.90;;
27746;SDS011;15138;51.012;4.692;2023-07-31T02:33:20;16.98;;;5.05;;
27746;SDS011;15138;51.012;4.692;2023-07-31T02:35:48;14.50;;;4.30;;
27746;SDS011;15138;51.012;4.692;2023-07-31T02:38:16;16.42;;;5.05;;
27746;SDS011;15138;51.012;4.692;2023-07-31T02:40:45;14.23;;;4.72;;
27746;SDS011;15138;51.012;4.692;2023-07-31T02:43:14;18.70;;;5.45;;
27746;SDS011;15138;51.012;4.692;2023-07-31T02:45:42;13.88;;;4.82;;
27746;SDS011;15138;51.012;4.692;2023-07-31T02:48:11;15.00;;;5.03;;
27746;SDS011;15138;51.012;4.692;2023-07-31T02:50:41;14.88;;;5.28;;
27746;SDS011;15138;51.012;4.692;2023-07-31T02:53:09;15.13;;;5.63;;
27746;SDS011;15138;51.012;4.692;2023-07-31T02:55:37;15.98;;;5.35;;
27746;SDS011;15138;51.012;4.692;2023-07-31T02:58:06;16.30;;;5.32;;
27746;SDS011;15138;51.012;4.692;2023-07-31T03:00:34;12.93;;;4.63;;
27746;SDS011;15138;51.012;4.692;2023-07-31T03:03:03;15.02;;;4.65;;
27746;SDS011;15138;51.012;4.692;2023-07-31T03:05:31;15.70;;;5.03;;
27746;SDS011;15138;51.012;4.692;2023-07-31T03:08:01;15.20;;;5.28;;
27746;SDS011;15138;51.012;4.692;2023-07-31T03:10:30;13.68;;;4.53;;
27746;SDS011;15138;51.012;4.692;2023-07-31T03:12:58;11.20;;;4.50;;
27746;SDS011;15138;51.012;4.692;2023-07-31T03:15:27;12.27;;;4.75;;
27746;SDS011;15138;51.012;4.692;2023-07-31T03:17:55;11.85;;;4.40;;
27746;SDS011;15138;51.012;4.692;2023-07-31T03:20:24;15.32;;;4.55;;
27746;SDS011;15138;51.012;4.692;2023-07-31T03:22:52;12.02;;;4.57;;
27746;SDS011;15138;51.012;4.692;2023-07-31T03:25:22;15.98;;;5.43;;
27746;SDS011;15138;51.012;4.692;2023-07-31T03:27:50;9.48;;;4.88;;
27746;SDS011;15138;51.012;4.692;2023-07-31T03:30:19;10.02;;;4.00;;
27746;SDS011;15138;51.012;4.692;2023-07-31T03:32:47;12.30;;;4.57;;
27746;SDS011;15138;51.012;4.692;2023-07-31T03:35:16;13.50;;;4.28;;
27746;SDS011;15138;51.012;4.692;2023-07-31T03:37:44;16.25;;;4.55;;
27746;SDS011;15138;51.012;4.692;2023-07-31T03:40:13;11.88;;;4.40;;
27746;SDS011;15138;51.012;4.692;2023-07-31T03:42:43;10.73;;;4.22;;
27746;SDS011;15138;51.012;4.692;2023-07-31T03:45:12;10.98;;;4.28;;
27746;SDS011;15138;51.012;4.692;2023-07-31T03:47:40;8.98;;;3.85;;
27746;SDS011;15138;51.012;4.692;2023-07-31T03:50:09;9.57;;;4.18;;
27746;SDS011;15138;51.012;4.692;2023-07-31T03:52:37;8.52;;;3.78;;
27746;SDS011;15138;51.012;4.692;2023-07-31T03:55:06;7.18;;;3.80;;
27746;SDS011;15138;51.012;4.692;2023-07-31T03:57:34;10.88;;;3.95;;
27746;SDS011;15138;51.012;4.692;2023-07-31T04:00:05;13.80;;;4.47;;
27746;SDS011;15138;51.012;4.692;2023-07-31T04:02:34;11.55;;;4.53;;
27746;SDS011;15138;51.012;4.692;2023-07-31T04:05:02;11.27;;;4.35;;
27746;SDS011;15138;51.012;4.692;2023-07-31T04:07:31;8.40;;;4.10;;
27746;SDS011;15138;51.012;4.692;2023-07-31T04:10:00;10.88;;;4.45;;
27746;SDS011;15138;51.012;4.692;2023-07-31T04:12:28;14.18;;;4.72;;
27746;SDS011;15138;51.012;4.692;2023-07-31T04:14:57;7.63;;;3.90;;
27746;SDS011;15138;51.012;4.692;2023-07-31T04:17:26;7.20;;;4.22;;
27746;SDS011;15138;51.012;4.692;2023-07-31T04:19:55;10.18;;;4.40;;
27746;SDS011;15138;51.012;4.692;2023-07-31T04:22:23;9.60;;;4.38;;
27746;SDS011;15138;51.012;4.692;2023-07-31T04:24:52;9.27;;;4.05;;
27746;SDS011;15138;51.012;4.692;2023-07-31T04:27:20;7.25;;;3.40;;
27746;SDS011;15138;51.012;4.692;2023-07-31T04:29:49;9.05;;;4.13;;
27746;SDS011;15138;51.012;4.692;2023-07-31T04:32:17;5.93;;;3.67;;
27746;SDS011;15138;51.012;4.692;2023-07-31T04:34:48;7.72;;;3.85;;
27746;SDS011;15138;51.012;4.692;2023-07-31T04:37:16;7.43;;;4.00;;
27746;SDS011;15138;51.012;4.692;2023-07-31T04:39:45;8.23;;;3.80;;
27746;SDS011;15138;51.012;4.692;2023-07-31T04:42:13;7.90;;;3.80;;
27746;SDS011;15138;51.012;4.692;2023-07-31T04:44:42;9.73;;;3.70;;
27746;SDS011;15138;51.012;4.692;2023-07-31T04:47:10;8.27;;;3.58;;
27746;SDS011;15138;51.012;4.692;2023-07-31T04:49:39;6.55;;;3.70;;
27746;SDS011;15138;51.012;4.692;2023-07-31T04:52:09;11.25;;;3.55;;
27746;SDS011;15138;51.012;4.692;2023-07-31T04:54:37;10.80;;;4.25;;
27746;SDS011;15138;51.012;4.692;2023-07-31T04:57:05;8.30;;;3.63;;
27746;SDS011;15138;51.012;4.692;2023-07-31T04:59:34;5.93;;;2.97;;
27746;SDS011;15138;51.012;4.692;2023-07-31T05:02:03;7.15;;;3.42;;
27746;SDS011;15138;51.012;4.692;2023-07-31T05:04:32;11.18;;;3.83;;
27746;SDS011;15138;51.012;4.692;2023-07-31T05:07:00;7.28;;;3.35;;
27746;SDS011;15138;51.012;4.692;2023-07-31T05:09:30;6.07;;;3.10;;
27746;SDS011;15138;51.012;4.692;2023-07-31T05:11:58;8.38;;;3.35;;
27746;SDS011;15138;51.012;4.692;2023-07-31T05:14:27;8.13;;;3.20;;
27746;SDS011;15138;51.012;4.692;2023-07-31T05:16:55;9.38;;;3.17;;
27746;SDS011;15138;51.012;4.692;2023-07-31T05:19:24;8.18;;;3.83;;
27746;SDS011;15138;51.012;4.692;2023-07-31T05:21:53;7.15;;;3.50;;
27746;SDS011;15138;51.012;4.692;2023-07-31T05:24:21;11.80;;;4.00;;
27746;SDS011;15138;51.012;4.692;2023-07-31T05:26:51;6.40;;;3.55;;
27746;SDS011;15138;51.012;4.692;2023-07-31T05:29:19;11.10;;;3.83;;
27746;SDS011;15138;51.012;4.692;2023-07-31T05:31:48;8.05;;;3.80;;
27746;SDS011;15138;51.012;4.692;2023-07-31T05:34:16;7.95;;;3.53;;
27746;SDS011;15138;51.012;4.692;2023-07-31T05:36:45;8.27;;;3.30;;
27746;SDS011;15138;51.012;4.692;2023-07-31T05:39:13;8.98;;;3.58;;
27746;SDS011;15138;51.012;4.692;2023-07-31T05:41:42;5.45;;;3.03;;
27746;SDS011;15138;51.012;4.692;2023-07-31T05:44:12;7.20;;;3.38;;
27746;SDS011;15138;51.012;4.692;2023-07-31T05:46:40;7.80;;;3.15;;
27746;SDS011;15138;51.012;4.692;2023-07-31T05:49:09;7.88;;;3.17;;
27746;SDS011;15138;51.012;4.692;2023-07-31T05:51:38;6.55;;;2.92;;
27746;SDS011;15138;51.012;4.692;2023-07-31T05:54:06;10.57;;;2.92;;
27746;SDS011;15138;51.012;4.692;2023-07-31T05:56:34;6.28;;;3.35;;
27746;SDS011;15138;51.012;4.692;2023-07-31T05:59:03;6.40;;;3.45;;
27746;SDS011;15138;51.012;4.692;2023-07-31T06:01:33;7.00;;;3.00;;
27746;SDS011;15138;51.012;4.692;2023-07-31T06:04:02;5.22;;;3.05;;
27746;SDS011;15138;51.012;4.692;2023-07-31T06:06:30;6.25;;;3.00;;
27746;SDS011;15138;51.012;4.692;2023-07-31T06:08:59;4.70;;;3.00;;
27746;SDS011;15138;51.012;4.692;2023-07-31T06:11:27;8.10;;;2.92;;
27746;SDS011;15138;51.012;4.692;2023-07-31T06:13:56;9.82;;;3.10;;
27746;SDS011;15138;51.012;4.692;2023-07-31T06:16:24;10.35;;;3.15;;
27746;SDS011;15138;51.012;4.692;2023-07-31T06:18:55;8.85;;;3.05;;
27746;SDS011;15138;51.012;4.692;2023-07-31T06:21:23;6.72;;;3.30;;
27746;SDS011;15138;51.012;4.692;2023-07-31T06:23:52;5.88;;;3.30;;
27746;SDS011;15138;51.012;4.692;2023-07-31T06:26:20;8.02;;;3.47;;
27746;SDS011;15138;51.012;4.692;2023-07-31T06:28:49;7.00;;;3.70;;
27746;SDS011;15138;51.012;4.692;2023-07-31T06:31:17;7.97;;;3.63;;
27746;SDS011;15138;51.012;4.692;2023-07-31T06:33:49;10.43;;;3.45;;
27746;SDS011;15138;51.012;4.692;2023-07-31T06:36:19;12.45;;;3.90;;
27746;SDS011;15138;51.012;4.692;2023-07-31T06:38:47;6.97;;;3.40;;
27746;SDS011;15138;51.012;4.692;2023-07-31T06:41:16;8.50;;;3.22;;
27746;SDS011;15138;51.012;4.692;2023-07-31T06:43:44;10.65;;;3.78;;
27746;SDS011;15138;51.012;4.692;2023-07-31T06:46:13;10.35;;;3.70;;
27746;SDS011;15138;51.012;4.692;2023-07-31T06:48:41;10.38;;;3.70;;
27746;SDS011;15138;51.012;4.692;2023-07-31T06:51:09;7.65;;;3.58;;
27746;SDS011;15138;51.012;4.692;2023-07-31T06:53:39;9.38;;;3.65;;
27746;SDS011;15138;51.012;4.692;2023-07-31T06:56:09;5.65;;;3.20;;
27746;SDS011;15138;51.012;4.692;2023-07-31T06:58:37;12.15;;;3.55;;
27746;SDS011;15138;51.012;4.692;2023-07-31T07:01:06;8.70;;;3.58;;
27746;SDS011;15138;51.012;4.692;2023-07-31T07:03:34;9.48;;;3.80;;
27746;SDS011;15138;51.012;4.692;2023-07-31T07:06:03;8.88;;;2.97;;
27746;SDS011;15138;51.012;4.692;2023-07-31T07:08:31;7.80;;;3.38;;
27746;SDS011;15138;51.012;4.692;2023-07-31T07:11:01;10.45;;;3.10;;
27746;SDS011;15138;51.012;4.692;2023-07-31T07:13:30;10.45;;;3.67;;
27746;SDS011;15138;51.012;4.692;2023-07-31T07:15:58;6.97;;;3.53;;
27746;SDS011;15138;51.012;4.692;2023-07-31T07:18:26;11.25;;;3.90;;
27746;SDS011;15138;51.012;4.692;2023-07-31T07:20:56;10.10;;;3.60;;
27746;SDS011;15138;51.012;4.692;2023-07-31T07:23:25;9.98;;;3.50;;
27746;SDS011;15138;51.012;4.692;2023-07-31T07:25:53;6.05;;;3.20;;
27746;SDS011;15138;51.012;4.692;2023-07-31T07:28:23;10.20;;;3.75;;
27746;SDS011;15138;51.012;4.692;2023-07-31T07:30:51;7.20;;;3.22;;
27746;SDS011;15138;51.012;4.692;2023-07-31T07:33:20;8.02;;;3.35;;
27746;SDS011;15138;51.012;4.692;2023-07-31T07:35:49;8.38;;;3.15;;
27746;SDS011;15138;51.012;4.692;2023-07-31T07:38:17;14.02;;;3.60;;
27746;SDS011;15138;51.012;4.692;2023-07-31T07:40:47;9.48;;;3.20;;
27746;SDS011;15138;51.012;4.692;2023-07-31T07:43:17;8.25;;;3.30;;
27746;SDS011;15138;51.012;4.692;2023-07-31T07:45:47;8.05;;;3.40;;
27746;SDS011;15138;51.012;4.692;2023-07-31T07:48:15;8.60;;;3.78;;
27746;SDS011;15138;51.012;4.692;2023-07-31T07:50:44;12.18;;;3.30;;
27746;SDS011;15138;51.012;4.692;2023-07-31T07:53:13;7.50;;;3.45;;
27746;SDS011;15138;51.012;4.692;2023-07-31T07:55:41;7.18;;;3.40;;
27746;SDS011;15138;51.012;4.692;2023-07-31T07:58:10;10.57;;;3.50;;
27746;SDS011;15138;51.012;4.692;2023-07-31T08:00:38;10.23;;;2.88;;
27746;SDS011;15138;51.012;4.692;2023-07-31T08:03:08;7.97;;;3.20;;
27746;SDS011;15138;51.012;4.692;2023-07-31T08:05:37;10.10;;;3.58;;
27746;SDS011;15138;51.012;4.692;2023-07-31T08:08:05;7.72;;;2.85;;
27746;SDS011;15138;51.012;4.692;2023-07-31T08:10:34;7.50;;;3.58;;
27746;SDS011;15138;51.012;4.692;2023-07-31T08:13:02;8.43;;;3.47;;
27746;SDS011;15138;51.012;4.692;2023-07-31T08:15:31;9.63;;;3.10;;
27746;SDS011;15138;51.012;4.692;2023-07-31T08:17:59;8.55;;;3.25;;
27746;SDS011;15138;51.012;4.692;2023-07-31T08:20:29;9.95;;;3.13;;
27746;SDS011;15138;51.012;4.692;2023-07-31T08:22:58;8.65;;;3.45;;
27746;SDS011;15138;51.012;4.692;2023-07-31T08:25:26;8.45;;;3.70;;
27746;SDS011;15138;51.012;4.692;2023-07-31T08:27:54;7.28;;;3.22;;
27746;SDS011;15138;51.012;4.692;2023-07-31T08:30:23;5.30;;;3.05;;
27746;SDS011;15138;51.012;4.692;2023-07-31T08:32:52;8.65;;;3.45;;
27746;SDS011;15138;51.012;4.692;2023-07-31T08:35:20;6.05;;;2.78;;
27746;SDS011;15138;51.012;4.692;2023-07-31T08:37:50;7.78;;;2.92;;
27746;SDS011;15138;51.012;4.692;2023-07-31T08:40:19;5.72;;;3.00;;
27746;SDS011;15138;51.012;4.692;2023-07-31T08:42:48;10.85;;;3.28;;
27746;SDS011;15138;51.012;4.692;2023-07-31T08:45:17;11.93;;;3.30;;
27746;SDS011;15138;51.012;4.692;2023-07-31T08:47:46;13.85;;;3.25;;
27746;SDS011;15138;51.012;4.692;2023-07-31T08:50:15;7.38;;;2.63;;
27746;SDS011;15138;51.012;4.692;2023-07-31T08:52:45;9.48;;;3.22;;
27746;SDS011;15138;51.012;4.692;2023-07-31T08:55:15;6.28;;;2.42;;
27746;SDS011;15138;51.012;4.692;2023-07-31T08:57:43;8.80;;;2.78;;
27746;SDS011;15138;51.012;4.692;2023-07-31T09:00:12;4.85;;;2.55;;
27746;SDS011;15138;51.012;4.692;2023-07-31T09:02:41;7.05;;;2.83;;
27746;SDS011;15138;51.012;4.692;2023-07-31T09:05:13;5.18;;;2.42;;
27746;SDS011;15138;51.012;4.692;2023-07-31T09:07:42;6.72;;;2.55;;
27746;SDS011;15138;51.012;4.692;2023-07-31T09:10:12;7.53;;;2.75;;
27746;SDS011;15138;51.012;4.692;2023-07-31T09:12:42;8.98;;;2.75;;
27746;SDS011;15138;51.012;4.692;2023-07-31T09:15:11;5.32;;;2.83;;
27746;SDS011;15138;51.012;4.692;2023-07-31T09:18:01;5.15;;;2.80;;
27746;SDS011;15138;51.012;4.692;2023-07-31T09:20:30;5.90;;;2.83;;
27746;SDS011;15138;51.012;4.692;2023-07-31T09:23:05;6.82;;;2.78;;
27746;SDS011;15138;51.012;4.692;2023-07-31T09:25:34;7.00;;;2.70;;
27746;SDS011;15138;51.012;4.692;2023-07-31T09:28:05;7.68;;;3.00;;
27746;SDS011;15138;51.012;4.692;2023-07-31T09:30:45;6.72;;;2.90;;
27746;SDS011;15138;51.012;4.692;2023-07-31T09:33:14;6.82;;;3.30;;
27746;SDS011;15138;51.012;4.692;2023-07-31T09:35:42;6.40;;;2.83;;
27746;SDS011;15138;51.012;4.692;2023-07-31T09:38:12;6.75;;;2.70;;
27746;SDS011;15138;51.012;4.692;2023-07-31T09:40:41;6.82;;;2.97;;
27746;SDS011;15138;51.012;4.692;2023-07-31T09:43:12;7.32;;;3.03;;
27746;SDS011;15138;51.012;4.692;2023-07-31T09:45:41;9.07;;;3.33;;
27746;SDS011;15138;51.012;4.692;2023-07-31T09:48:10;8.00;;;3.25;;
27746;SDS011;15138;51.012;4.692;2023-07-31T09:50:40;6.43;;;2.90;;
27746;SDS011;15138;51.012;4.692;2023-07-31T09:53:09;6.65;;;3.05;;
27746;SDS011;15138;51.012;4.692;2023-07-31T09:55:37;6.43;;;2.90;;
27746;SDS011;15138;51.012;4.692;2023-07-31T09:58:07;6.25;;;3.10;;
27746;SDS011;15138;51.012;4.692;2023-07-31T10:00:37;8.13;;;3.40;;
27746;SDS011;15138;51.012;4.692;2023-07-31T10:03:06;7.07;;;3.10;;
27746;SDS011;15138;51.012;4.692;2023-07-31T10:05:35;6.10;;;3.00;;
27746;SDS011;15138;51.012;4.692;2023-07-31T10:08:04;7.32;;;2.88;;
27746;SDS011;15138;51.012;4.692;2023-07-31T10:10:33;9.73;;;3.10;;
27746;SDS011;15138;51.012;4.692;2023-07-31T10:13:02;7.35;;;2.97;;
27746;SDS011;15138;51.012;4.692;2023-07-31T10:15:32;10.10;;;3.22;;
27746;SDS011;15138;51.012;4.692;2023-07-31T10:18:02;6.60;;;2.75;;
27746;SDS011;15138;51.012;4.692;2023-07-31T10:20:30;6.00;;;3.58;;
27746;SDS011;15138;51.012;4.692;2023-07-31T10:22:59;6.15;;;2.95;;
27746;SDS011;15138;51.012;4.692;2023-07-31T10:25:28;7.55;;;3.08;;
27746;SDS011;15138;51.012;4.692;2023-07-31T10:27:57;6.80;;;3.17;;
27746;SDS011;15138;51.012;4.692;2023-07-31T10:30:26;7.15;;;3.10;;
27746;SDS011;15138;51.012;4.692;2023-07-31T10:32:55;7.53;;;2.92;;
27746;SDS011;15138;51.012;4.692;2023-07-31T10:35:27;6.68;;;3.08;;
27746;SDS011;15138;51.012;4.692;2023-07-31T10:37:56;7.47;;;3.30;;
27746;SDS011;15138;51.012;4.692;2023-07-31T10:40:37;5.35;;;2.83;;
27746;SDS011;15138;51.012;4.692;2023-07-31T10:43:05;9.27;;;3.45;;
27746;SDS011;15138;51.012;4.692;2023-07-31T10:45:35;8.23;;;3.10;;
27746;SDS011;15138;51.012;4.692;2023-07-31T10:48:04;8.15;;;2.97;;
27746;SDS011;15138;51.012;4.692;2023-07-31T10:50:36;7.47;;;3.35;;
27746;SDS011;15138;51.012;4.692;2023-07-31T10:53:05;6.80;;;3.47;;
27746;SDS011;15138;51.012;4.692;2023-07-31T10:55:38;8.00;;;3.05;;
27746;SDS011;15138;51.012;4.692;2023-07-31T10:58:08;8.90;;;3.88;;
27746;SDS011;15138;51.012;4.692;2023-07-31T11:00:37;6.18;;;3.42;;
27746;SDS011;15138;51.012;4.692;2023-07-31T11:03:07;12.75;;;3.55;;
27746;SDS011;15138;51.012;4.692;2023-07-31T11:05:45;8.32;;;3.75;;
27746;SDS011;15138;51.012;4.692;2023-07-31T11:08:14;8.95;;;4.00;;
27746;SDS011;15138;51.012;4.692;2023-07-31T11:10:44;7.18;;;3.78;;
27746;SDS011;15138;51.012;4.692;2023-07-31T11:13:12;9.40;;;3.75;;
27746;SDS011;15138;51.012;4.692;2023-07-31T11:15:41;8.98;;;3.85;;
27746;SDS011;15138;51.012;4.692;2023-07-31T11:18:09;10.57;;;3.53;;
27746;SDS011;15138;51.012;4.692;2023-07-31T11:20:38;9.73;;;3.85;;
27746;SDS011;15138;51.012;4.692;2023-07-31T11:23:09;10.93;;;3.95;;
27746;SDS011;15138;51.012;4.692;2023-07-31T11:25:37;11.07;;;4.15;;
27746;SDS011;15138;51.012;4.692;2023-07-31T11:28:08;9.05;;;4.00;;
27746;SDS011;15138;51.012;4.692;2023-07-31T11:30:37;8.07;;;3.67;;
27746;SDS011;15138;51.012;4.692;2023-07-31T11:33:07;11.25;;;4.35;;
27746;SDS011;15138;51.012;4.692;2023-07-31T11:35:41;8.85;;;4.00;;
27746;SDS011;15138;51.012;4.692;2023-07-31T11:38:12;10.15;;;4.28;;
27746;SDS011;15138;51.012;4.692;2023-07-31T11:40:49;8.85;;;4.05;;
27746;SDS011;15138;51.012;4.692;2023-07-31T11:43:18;8.30;;;4.07;;
27746;SDS011;15138;51.012;4.692;2023-07-31T11:45:47;9.68;;;3.85;;
27746;SDS011;15138;51.012;4.692;2023-07-31T11:48:19;10.35;;;4.22;;
27746;SDS011;15138;51.012;4.692;2023-07-31T11:50:49;11.45;;;4.45;;
27746;SDS011;15138;51.012;4.692;2023-07-31T11:53:21;11.25;;;4.30;;
27746;SDS011;15138;51.012;4.692;2023-07-31T11:55:50;8.75;;;3.78;;
27746;SDS011;15138;51.012;4.692;2023-07-31T11:58:19;11.05;;;4.50;;
27746;SDS011;15138;51.012;4.692;2023-07-31T12:00:47;12.15;;;4.03;;
27746;SDS011;15138;51.012;4.692;2023-07-31T12:03:16;9.68;;;4.07;;
27746;SDS011;15138;51.012;4.692;2023-07-31T12:05:47;8.75;;;3.85;;
27746;SDS011;15138;51.012;4.692;2023-07-31T12:08:15;8.93;;;4.15;;
27746;SDS011;15138;51.012;4.692;2023-07-31T12:10:45;14.63;;;4.03;;
27746;SDS011;15138;51.012;4.692;2023-07-31T12:13:19;10.30;;;4.60;;
27746;SDS011;15138;51.012;4.692;2023-07-31T12:15:48;10.38;;;4.72;;
27746;SDS011;15138;51.012;4.692;2023-07-31T12:18:18;8.20;;;4.43;;
27746;SDS011;15138;51.012;4.692;2023-07-31T12:20:48;8.57;;;4.05;;
27746;SDS011;15138;51.012;4.692;2023-07-31T12:23:17;10.23;;;4.00;;
27746;SDS011;15138;51.012;4.692;2023-07-31T12:25:47;11.95;;;4.15;;
27746;SDS011;15138;51.012;4.692;2023-07-31T12:28:15;12.55;;;4.38;;
27746;SDS011;15138;51.012;4.692;2023-07-31T12:30:44;11.85;;;4.15;;
27746;SDS011;15138;51.012;4.692;2023-07-31T12:33:13;10.88;;;4.45;;
27746;SDS011;15138;51.012;4.692;2023-07-31T12:35:43;9.80;;;4.07;;
27746;SDS011;15138;51.012;4.692;2023-07-31T12:38:12;9.65;;;4.60;;
27746;SDS011;15138;51.012;4.692;2023-07-31T12:40:40;9.43;;;3.95;;
27746;SDS011;15138;51.012;4.692;2023-07-31T12:43:10;12.65;;;4.20;;
27746;SDS011;15138;51.012;4.692;2023-07-31T12:45:39;13.25;;;4.43;;
27746;SDS011;15138;51.012;4.692;2023-07-31T12:48:08;10.48;;;3.83;;
27746;SDS011;15138;51.012;4.692;2023-07-31T12:50:36;9.10;;;4.05;;
27746;SDS011;15138;51.012;4.692;2023-07-31T12:53:06;9.98;;;3.50;;
27746;SDS011;15138;51.012;4.692;2023-07-31T12:55:34;14.50;;;4.35;;
27746;SDS011;15138;51.012;4.692;2023-07-31T12:58:03;10.15;;;4.28;;
27746;SDS011;15138;51.012;4.692;2023-07-31T13:00:33;8.55;;;3.90;;
27746;SDS011;15138;51.012;4.692;2023-07-31T13:03:01;12.10;;;4.35;;
27746;SDS011;15138;51.012;4.692;2023-07-31T13:05:30;8.20;;;4.15;;
27746;SDS011;15138;51.012;4.692;2023-07-31T13:07:59;9.93;;;4.50;;
27746;SDS011;15138;51.012;4.692;2023-07-31T13:10:27;9.95;;;4.00;;
27746;SDS011;15138;51.012;4.692;2023-07-31T13:12:56;12.52;;;4.88;;
27746;SDS011;15138;51.012;4.692;2023-07-31T13:15:25;9.02;;;4.30;;
27746;SDS011;15138;51.012;4.692;2023-07-31T13:17:55;9.25;;;4.13;;
27746;SDS011;15138;51.012;4.692;2023-07-31T13:20:23;10.80;;;4.35;;
27746;SDS011;15138;51.012;4.692;2023-07-31T13:22:52;9.43;;;3.88;;
27746;SDS011;15138;51.012;4.692;2023-07-31T13:25:20;8.05;;;4.38;;
27746;SDS011;15138;51.012;4.692;2023-07-31T13:27:49;12.15;;;4.07;;
27746;SDS011;15138;51.012;4.692;2023-07-31T13:30:17;13.00;;;4.53;;
27746;SDS011;15138;51.012;4.692;2023-07-31T13:32:45;8.02;;;3.63;;
27746;SDS011;15138;51.012;4.692;2023-07-31T13:35:15;8.02;;;4.05;;
27746;SDS011;15138;51.012;4.692;2023-07-31T13:37:44;11.65;;;4.10;;
27746;SDS011;15138;51.012;4.692;2023-07-31T13:40:12;6.95;;;3.80;;
27746;SDS011;15138;51.012;4.692;2023-07-31T13:42:41;8.20;;;3.20;;
27746;SDS011;15138;51.012;4.692;2023-07-31T13:45:09;8.43;;;3.60;;
27746;SDS011;15138;51.012;4.692;2023-07-31T13:47:38;8.80;;;3.40;;
27746;SDS011;15138;51.012;4.692;2023-07-31T13:50:06;5.60;;;3.22;;
27746;SDS011;15138;51.012;4.692;2023-07-31T13:52:36;7.95;;;3.40;;
27746;SDS011;15138;51.012;4.692;2023-07-31T13:55:05;5.95;;;2.83;;
27746;SDS011;15138;51.012;4.692;2023-07-31T13:57:34;4.95;;;2.65;;
27746;SDS011;15138;51.012;4.692;2023-07-31T14:00:02;6.32;;;2.88;;
27746;SDS011;15138;51.012;4.692;2023-07-31T14:02:31;7.78;;;2.90;;
27746;SDS011;15138;51.012;4.692;2023-07-31T14:05:00;6.20;;;2.90;;
27746;SDS011;15138;51.012;4.692;2023-07-31T14:07:29;5.88;;;2.70;;
27746;SDS011;15138;51.012;4.692;2023-07-31T14:09:59;5.43;;;2.50;;
27746;SDS011;15138;51.012;4.692;2023-07-31T14:12:27;5.45;;;2.40;;
27746;SDS011;15138;51.012;4.692;2023-07-31T14:15:08;5.22;;;2.20;;
27746;SDS011;15138;51.012;4.692;2023-07-31T14:17:37;4.20;;;2.30;;
27746;SDS011;15138;51.012;4.692;2023-07-31T14:20:06;4.55;;;2.47;;
27746;SDS011;15138;51.012;4.692;2023-07-31T14:22:35;4.50;;;2.45;;
27746;SDS011;15138;51.012;4.692;2023-07-31T14:25:06;6.95;;;2.50;;
27746;SDS011;15138;51.012;4.692;2023-07-31T14:27:36;5.70;;;2.30;;
27746;SDS011;15138;51.012;4.692;2023-07-31T14:30:05;4.38;;;2.13;;
27746;SDS011;15138;51.012;4.692;2023-07-31T14:32:34;5.25;;;2.33;;
27746;SDS011;15138;51.012;4.692;2023-07-31T14:35:03;4.30;;;2.30;;
27746;SDS011;15138;51.012;4.692;2023-07-31T14:37:36;5.82;;;2.53;;
27746;SDS011;15138;51.012;4.692;2023-07-31T14:40:07;3.70;;;2.10;;
27746;SDS011;15138;51.012;4.692;2023-07-31T14:42:35;5.18;;;2.28;;
27746;SDS011;15138;51.012;4.692;2023-07-31T14:45:04;3.90;;;2.20;;
27746;SDS011;15138;51.012;4.692;2023-07-31T14:47:33;4.13;;;1.95;;
27746;SDS011;15138;51.012;4.692;2023-07-31T14:50:02;6.15;;;2.25;;
27746;SDS011;15138;51.012;4.692;2023-07-31T14:52:31;6.63;;;2.28;;
27746;SDS011;15138;51.012;4.692;2023-07-31T14:54:59;8.77;;;2.10;;
27746;SDS011;15138;51.012;4.692;2023-07-31T14:57:29;4.32;;;1.90;;